sensor_id;sensor_type;location;lat;lon;timestamp;P1;durP1;ratioP1;P2;durP2;ratioP2
52798;SDS011;38667;42.872;74.622;2023-04-19T00:01:57;35.87;;;17.37;;
52798;SDS011;38667;42.872;74.622;2023-04-19T00:04:23;33.70;;;18.70;;
52798;SDS011;38667;42.872;74.622;2023-04-19T00:06:49;62.80;;;30.70;;
52798;SDS011;38667;42.872;74.622;2023-04-19T00:09:16;57.63;;;30.77;;
52798;SDS011;38667;42.872;74.622;2023-04-19T00:11:42;60.20;;;30.97;;
52798;SDS011;38667;42.872;74.622;2023-04-19T00:14:08;65.20;;;31.63;;
52798;SDS011;38667;42.872;74.622;2023-04-19T00:16:35;60.30;;;31.53;;
52798;SDS011;38667;42.872;74.622;2023-04-19T00:19:02;60.03;;;29.10;;
52798;SDS011;38667;42.872;74.622;2023-04-19T00:21:29;61.37;;;29.93;;
52798;SDS011;38667;42.872;74.622;2023-04-19T00:23:55;66.90;;;30.73;;
52798;SDS011;38667;42.872;74.622;2023-04-19T00:26:22;57.13;;;29.60;;
52798;SDS011;38667;42.872;74.622;2023-04-19T00:28:48;56.03;;;29.97;;
52798;SDS011;38667;42.872;74.622;2023-04-19T00:31:14;38.87;;;18.97;;
52798;SDS011;38667;42.872;74.622;2023-04-19T00:33:40;30.33;;;15.60;;
52798;SDS011;38667;42.872;74.622;2023-04-19T00:36:08;36.73;;;15.53;;
52798;SDS011;38667;42.872;74.622;2023-04-19T00:38:35;27.33;;;14.00;;
52798;SDS011;38667;42.872;74.622;2023-04-19T00:41:01;28.00;;;15.30;;
52798;SDS011;38667;42.872;74.622;2023-04-19T00:43:27;28.60;;;14.57;;
52798;SDS011;38667;42.872;74.622;2023-04-19T00:45:54;28.23;;;14.97;;
52798;SDS011;38667;42.872;74.622;2023-04-19T00:48:20;25.00;;;13.73;;
52798;SDS011;38667;42.872;74.622;2023-04-19T00:50:47;27.97;;;14.70;;
52798;SDS011;38667;42.872;74.622;2023-04-19T00:53:15;27.90;;;14.83;;
52798;SDS011;38667;42.872;74.622;2023-04-19T00:55:41;35.20;;;16.97;;
52798;SDS011;38667;42.872;74.622;2023-04-19T00:58:08;29.10;;;15.30;;
52798;SDS011;38667;42.872;74.622;2023-04-19T01:00:34;50.43;;;22.73;;
52798;SDS011;38667;42.872;74.622;2023-04-19T01:03:01;74.97;;;30.07;;
52798;SDS011;38667;42.872;74.622;2023-04-19T01:05:27;63.03;;;33.07;;
52798;SDS011;38667;42.872;74.622;2023-04-19T01:07:54;51.87;;;27.03;;
52798;SDS011;38667;42.872;74.622;2023-04-19T01:10:22;70.73;;;32.93;;
52798;SDS011;38667;42.872;74.622;2023-04-19T01:12:48;68.63;;;34.53;;
52798;SDS011;38667;42.872;74.622;2023-04-19T01:15:14;64.10;;;31.77;;
52798;SDS011;38667;42.872;74.622;2023-04-19T01:17:41;60.30;;;31.35;;
52798;SDS011;38667;42.872;74.622;2023-04-19T01:20:07;55.60;;;30.87;;
52798;SDS011;38667;42.872;74.622;2023-04-19T01:22:36;66.17;;;31.07;;
52798;SDS011;38667;42.872;74.622;2023-04-19T01:25:03;62.23;;;32.70;;
52798;SDS011;38667;42.872;74.622;2023-04-19T01:27:30;61.67;;;30.17;;
52798;SDS011;38667;42.872;74.622;2023-04-19T01:29:56;61.53;;;31.37;;
52798;SDS011;38667;42.872;74.622;2023-04-19T01:32:23;56.80;;;29.03;;
52798;SDS011;38667;42.872;74.622;2023-04-19T01:34:49;58.65;;;28.42;;
52798;SDS011;38667;42.872;74.622;2023-04-19T01:37:16;54.85;;;26.27;;
52798;SDS011;38667;42.872;74.622;2023-04-19T01:39:44;58.00;;;26.47;;
52798;SDS011;38667;42.872;74.622;2023-04-19T01:42:10;52.90;;;27.77;;
52798;SDS011;38667;42.872;74.622;2023-04-19T01:44:36;56.75;;;27.88;;
52798;SDS011;38667;42.872;74.622;2023-04-19T01:47:03;52.83;;;26.87;;
52798;SDS011;38667;42.872;74.622;2023-04-19T01:49:29;53.10;;;25.63;;
52798;SDS011;38667;42.872;74.622;2023-04-19T01:51:55;52.73;;;26.27;;
52798;SDS011;38667;42.872;74.622;2023-04-19T01:54:22;53.03;;;26.73;;
52798;SDS011;38667;42.872;74.622;2023-04-19T01:56:50;56.63;;;25.57;;
52798;SDS011;38667;42.872;74.622;2023-04-19T01:59:16;55.70;;;27.70;;
52798;SDS011;38667;42.872;74.622;2023-04-19T02:01:42;56.47;;;27.47;;
52798;SDS011;38667;42.872;74.622;2023-04-19T02:04:08;57.73;;;28.07;;
52798;SDS011;38667;42.872;74.622;2023-04-19T02:06:35;52.30;;;28.40;;
52798;SDS011;38667;42.872;74.622;2023-04-19T02:09:01;55.47;;;27.58;;
52798;SDS011;38667;42.872;74.622;2023-04-19T02:11:27;49.78;;;25.40;;
52798;SDS011;38667;42.872;74.622;2023-04-19T02:13:55;49.40;;;24.33;;
52798;SDS011;38667;42.872;74.622;2023-04-19T02:16:21;54.22;;;24.58;;
52798;SDS011;38667;42.872;74.622;2023-04-19T02:18:48;45.17;;;22.10;;
52798;SDS011;38667;42.872;74.622;2023-04-19T02:21:14;39.87;;;19.23;;
52798;SDS011;38667;42.872;74.622;2023-04-19T02:23:40;48.33;;;21.17;;
52798;SDS011;38667;42.872;74.622;2023-04-19T02:26:07;47.13;;;19.35;;
52798;SDS011;38667;42.872;74.622;2023-04-19T02:28:33;44.17;;;21.52;;
52798;SDS011;38667;42.872;74.622;2023-04-19T02:31:02;51.70;;;22.20;;
52798;SDS011;38667;42.872;74.622;2023-04-19T02:33:29;47.80;;;21.73;;
52798;SDS011;38667;42.872;74.622;2023-04-19T02:35:56;45.38;;;20.30;;
52798;SDS011;38667;42.872;74.622;2023-04-19T02:38:22;45.83;;;19.25;;
52798;SDS011;38667;42.872;74.622;2023-04-19T02:40:48;50.20;;;19.77;;
52798;SDS011;38667;42.872;74.622;2023-04-19T02:43:15;38.78;;;17.95;;
52798;SDS011;38667;42.872;74.622;2023-04-19T02:45:41;43.10;;;19.75;;
52798;SDS011;38667;42.872;74.622;2023-04-19T02:48:09;38.67;;;17.30;;
52798;SDS011;38667;42.872;74.622;2023-04-19T02:50:36;44.22;;;20.80;;
52798;SDS011;38667;42.872;74.622;2023-04-19T02:53:02;40.95;;;20.27;;
52798;SDS011;38667;42.872;74.622;2023-04-19T02:55:28;44.65;;;20.20;;
52798;SDS011;38667;42.872;74.622;2023-04-19T02:57:55;40.88;;;20.48;;
52798;SDS011;38667;42.872;74.622;2023-04-19T03:00:21;36.30;;;18.58;;
52798;SDS011;38667;42.872;74.622;2023-04-19T03:02:47;42.45;;;19.35;;
52798;SDS011;38667;42.872;74.622;2023-04-19T03:05:15;46.25;;;20.23;;
52798;SDS011;38667;42.872;74.622;2023-04-19T03:07:42;43.15;;;18.27;;
52798;SDS011;38667;42.872;74.622;2023-04-19T03:10:08;40.78;;;18.92;;
52798;SDS011;38667;42.872;74.622;2023-04-19T03:12:35;40.72;;;19.63;;
52798;SDS011;38667;42.872;74.622;2023-04-19T03:15:01;42.80;;;18.63;;
52798;SDS011;38667;42.872;74.622;2023-04-19T03:17:27;42.17;;;18.92;;
52798;SDS011;38667;42.872;74.622;2023-04-19T03:19:54;33.88;;;18.05;;
52798;SDS011;38667;42.872;74.622;2023-04-19T03:22:22;35.33;;;18.33;;
52798;SDS011;38667;42.872;74.622;2023-04-19T03:24:48;40.20;;;18.73;;
52798;SDS011;38667;42.872;74.622;2023-04-19T03:27:14;43.72;;;18.48;;
52798;SDS011;38667;42.872;74.622;2023-04-19T03:29:41;39.63;;;18.90;;
52798;SDS011;38667;42.872;74.622;2023-04-19T03:32:07;37.73;;;19.20;;
52798;SDS011;38667;42.872;74.622;2023-04-19T03:34:33;35.25;;;17.88;;
52798;SDS011;38667;42.872;74.622;2023-04-19T03:37:00;38.97;;;18.85;;
52798;SDS011;38667;42.872;74.622;2023-04-19T03:39:28;35.05;;;18.00;;
52798;SDS011;38667;42.872;74.622;2023-04-19T03:41:54;36.08;;;16.92;;
52798;SDS011;38667;42.872;74.622;2023-04-19T03:44:20;41.83;;;17.08;;
52798;SDS011;38667;42.872;74.622;2023-04-19T03:46:47;38.75;;;17.27;;
52798;SDS011;38667;42.872;74.622;2023-04-19T03:49:13;35.40;;;16.90;;
52798;SDS011;38667;42.872;74.622;2023-04-19T03:51:39;39.63;;;17.63;;
52798;SDS011;38667;42.872;74.622;2023-04-19T03:54:06;33.63;;;17.25;;
52798;SDS011;38667;42.872;74.622;2023-04-19T03:56:34;33.78;;;16.10;;
52798;SDS011;38667;42.872;74.622;2023-04-19T03:59:00;35.13;;;18.63;;
52798;SDS011;38667;42.872;74.622;2023-04-19T04:01:26;41.97;;;18.52;;
52798;SDS011;38667;42.872;74.622;2023-04-19T04:03:53;36.70;;;17.73;;
52798;SDS011;38667;42.872;74.622;2023-04-19T04:06:19;33.20;;;16.83;;
52798;SDS011;38667;42.872;74.622;2023-04-19T04:08:45;33.22;;;18.38;;
52798;SDS011;38667;42.872;74.622;2023-04-19T04:11:12;37.95;;;17.00;;
52798;SDS011;38667;42.872;74.622;2023-04-19T04:13:39;34.90;;;18.48;;
52798;SDS011;38667;42.872;74.622;2023-04-19T04:16:06;39.08;;;18.83;;
52798;SDS011;38667;42.872;74.622;2023-04-19T04:18:32;37.38;;;18.02;;
52798;SDS011;38667;42.872;74.622;2023-04-19T04:20:59;35.15;;;18.55;;
52798;SDS011;38667;42.872;74.622;2023-04-19T04:23:25;33.63;;;18.17;;
52798;SDS011;38667;42.872;74.622;2023-04-19T04:25:55;33.90;;;19.00;;
52798;SDS011;38667;42.872;74.622;2023-04-19T04:28:22;36.40;;;18.33;;
52798;SDS011;38667;42.872;74.622;2023-04-19T04:30:49;35.22;;;18.20;;
52798;SDS011;38667;42.872;74.622;2023-04-19T04:33:16;37.55;;;18.23;;
52798;SDS011;38667;42.872;74.622;2023-04-19T04:35:42;33.10;;;19.08;;
52798;SDS011;38667;42.872;74.622;2023-04-19T04:38:08;36.10;;;18.73;;
52798;SDS011;38667;42.872;74.622;2023-04-19T04:40:35;39.78;;;19.88;;
52798;SDS011;38667;42.872;74.622;2023-04-19T04:43:01;33.00;;;19.35;;
52798;SDS011;38667;42.872;74.622;2023-04-19T04:45:27;32.72;;;18.65;;
52798;SDS011;38667;42.872;74.622;2023-04-19T04:47:55;34.88;;;19.35;;
52798;SDS011;38667;42.872;74.622;2023-04-19T04:50:21;37.30;;;18.75;;
52798;SDS011;38667;42.872;74.622;2023-04-19T04:52:48;36.33;;;18.95;;
52798;SDS011;38667;42.872;74.622;2023-04-19T04:55:14;35.05;;;17.88;;
52798;SDS011;38667;42.872;74.622;2023-04-19T04:57:40;32.42;;;19.58;;
52798;SDS011;38667;42.872;74.622;2023-04-19T05:00:07;28.45;;;19.15;;
52798;SDS011;38667;42.872;74.622;2023-04-19T05:02:34;31.73;;;19.77;;
52798;SDS011;38667;42.872;74.622;2023-04-19T05:05:02;38.92;;;19.25;;
52798;SDS011;38667;42.872;74.622;2023-04-19T05:07:28;38.67;;;19.52;;
52798;SDS011;38667;42.872;74.622;2023-04-19T05:09:55;36.00;;;20.27;;
52798;SDS011;38667;42.872;74.622;2023-04-19T05:12:21;35.25;;;21.98;;
52798;SDS011;38667;42.872;74.622;2023-04-19T05:14:47;32.72;;;19.35;;
52798;SDS011;38667;42.872;74.622;2023-04-19T05:17:14;35.85;;;21.20;;
52798;SDS011;38667;42.872;74.622;2023-04-19T05:19:40;36.15;;;20.52;;
52798;SDS011;38667;42.872;74.622;2023-04-19T05:22:08;34.63;;;20.20;;
52798;SDS011;38667;42.872;74.622;2023-04-19T05:24:34;32.70;;;21.15;;
52798;SDS011;38667;42.872;74.622;2023-04-19T05:27:00;37.80;;;21.10;;
52798;SDS011;38667;42.872;74.622;2023-04-19T05:29:27;36.40;;;20.70;;
52798;SDS011;38667;42.872;74.622;2023-04-19T05:31:53;37.75;;;21.13;;
52798;SDS011;38667;42.872;74.622;2023-04-19T05:34:20;37.40;;;19.52;;
52798;SDS011;38667;42.872;74.622;2023-04-19T05:36:46;29.42;;;18.27;;
52798;SDS011;38667;42.872;74.622;2023-04-19T05:39:14;29.20;;;17.60;;
52798;SDS011;38667;42.872;74.622;2023-04-19T05:41:40;31.92;;;19.10;;
52798;SDS011;38667;42.872;74.622;2023-04-19T05:44:06;33.78;;;18.75;;
52798;SDS011;38667;42.872;74.622;2023-04-19T05:46:33;36.25;;;18.58;;
52798;SDS011;38667;42.872;74.622;2023-04-19T05:48:59;33.08;;;18.98;;
52798;SDS011;38667;42.872;74.622;2023-04-19T05:51:26;34.53;;;20.63;;
52798;SDS011;38667;42.872;74.622;2023-04-19T05:53:52;33.15;;;20.85;;
52798;SDS011;38667;42.872;74.622;2023-04-19T05:56:21;34.78;;;21.13;;
52798;SDS011;38667;42.872;74.622;2023-04-19T05:58:47;37.95;;;21.50;;
52798;SDS011;38667;42.872;74.622;2023-04-19T06:01:13;46.42;;;21.90;;
52798;SDS011;38667;42.872;74.622;2023-04-19T06:03:40;34.67;;;22.38;;
52798;SDS011;38667;42.872;74.622;2023-04-19T06:06:06;37.92;;;21.15;;
52798;SDS011;38667;42.872;74.622;2023-04-19T06:08:32;45.50;;;20.80;;
52798;SDS011;38667;42.872;74.622;2023-04-19T06:10:59;32.58;;;20.77;;
52798;SDS011;38667;42.872;74.622;2023-04-19T06:13:27;37.50;;;21.52;;
52798;SDS011;38667;42.872;74.622;2023-04-19T06:15:53;39.95;;;20.77;;
52798;SDS011;38667;42.872;74.622;2023-04-19T06:18:19;35.83;;;23.30;;
52798;SDS011;38667;42.872;74.622;2023-04-19T06:20:46;43.95;;;24.50;;
52798;SDS011;38667;42.872;74.622;2023-04-19T06:23:12;36.58;;;21.75;;
52798;SDS011;38667;42.872;74.622;2023-04-19T06:25:39;40.80;;;22.58;;
52798;SDS011;38667;42.872;74.622;2023-04-19T06:28:05;33.38;;;22.10;;
52798;SDS011;38667;42.872;74.622;2023-04-19T06:30:35;42.10;;;23.52;;
52798;SDS011;38667;42.872;74.622;2023-04-19T06:33:01;37.42;;;23.65;;
52798;SDS011;38667;42.872;74.622;2023-04-19T06:35:28;36.25;;;21.95;;
52798;SDS011;38667;42.872;74.622;2023-04-19T06:37:54;42.10;;;21.83;;
52798;SDS011;38667;42.872;74.622;2023-04-19T06:40:20;35.35;;;22.48;;
52798;SDS011;38667;42.872;74.622;2023-04-19T06:42:47;38.13;;;21.70;;
52798;SDS011;38667;42.872;74.622;2023-04-19T06:45:13;33.95;;;21.17;;
52798;SDS011;38667;42.872;74.622;2023-04-19T06:47:41;32.00;;;22.27;;
52798;SDS011;38667;42.872;74.622;2023-04-19T06:50:08;48.10;;;23.20;;
52798;SDS011;38667;42.872;74.622;2023-04-19T06:52:35;39.03;;;21.70;;
52798;SDS011;38667;42.872;74.622;2023-04-19T06:55:01;39.28;;;22.30;;
52798;SDS011;38667;42.872;74.622;2023-04-19T06:57:27;37.95;;;22.10;;
52798;SDS011;38667;42.872;74.622;2023-04-19T06:59:54;37.08;;;22.33;;
52798;SDS011;38667;42.872;74.622;2023-04-19T07:02:20;36.13;;;22.15;;
52798;SDS011;38667;42.872;74.622;2023-04-19T07:04:48;33.70;;;23.02;;
52798;SDS011;38667;42.872;74.622;2023-04-19T07:07:14;42.10;;;24.23;;
52798;SDS011;38667;42.872;74.622;2023-04-19T07:09:41;41.15;;;24.92;;
52798;SDS011;38667;42.872;74.622;2023-04-19T07:12:07;36.35;;;23.52;;
52798;SDS011;38667;42.872;74.622;2023-04-19T07:14:33;36.85;;;23.52;;
52798;SDS011;38667;42.872;74.622;2023-04-19T07:17:00;35.15;;;23.70;;
52798;SDS011;38667;42.872;74.622;2023-04-19T07:19:28;37.95;;;23.25;;
52798;SDS011;38667;42.872;74.622;2023-04-19T07:21:55;35.30;;;23.60;;
52798;SDS011;38667;42.872;74.622;2023-04-19T07:24:22;35.50;;;22.60;;
52798;SDS011;38667;42.872;74.622;2023-04-19T07:26:48;37.42;;;24.25;;
52798;SDS011;38667;42.872;74.622;2023-04-19T07:29:14;40.97;;;25.25;;
52798;SDS011;38667;42.872;74.622;2023-04-19T07:31:41;40.50;;;24.05;;
52798;SDS011;38667;42.872;74.622;2023-04-19T07:34:07;34.80;;;24.00;;
52798;SDS011;38667;42.872;74.622;2023-04-19T07:36:33;34.47;;;23.02;;
52798;SDS011;38667;42.872;74.622;2023-04-19T07:39:01;35.13;;;23.65;;
52798;SDS011;38667;42.872;74.622;2023-04-19T07:41:28;38.00;;;24.60;;
52798;SDS011;38667;42.872;74.622;2023-04-19T07:43:54;38.47;;;24.77;;
52798;SDS011;38667;42.872;74.622;2023-04-19T07:46:20;33.95;;;23.92;;
52798;SDS011;38667;42.872;74.622;2023-04-19T07:48:47;38.25;;;24.02;;
52798;SDS011;38667;42.872;74.622;2023-04-19T07:51:13;33.58;;;23.98;;
52798;SDS011;38667;42.872;74.622;2023-04-19T07:53:40;41.60;;;24.13;;
52798;SDS011;38667;42.872;74.622;2023-04-19T07:56:09;36.78;;;24.75;;
52798;SDS011;38667;42.872;74.622;2023-04-19T07:58:36;39.00;;;24.00;;
52798;SDS011;38667;42.872;74.622;2023-04-19T08:01:03;32.88;;;22.95;;
52798;SDS011;38667;42.872;74.622;2023-04-19T08:03:29;33.80;;;23.98;;
52798;SDS011;38667;42.872;74.622;2023-04-19T08:05:59;38.03;;;24.75;;
52798;SDS011;38667;42.872;74.622;2023-04-19T08:08:26;39.63;;;24.67;;
52798;SDS011;38667;42.872;74.622;2023-04-19T08:10:52;36.33;;;23.05;;
52798;SDS011;38667;42.872;74.622;2023-04-19T08:13:20;30.70;;;24.17;;
52798;SDS011;38667;42.872;74.622;2023-04-19T08:15:47;37.13;;;23.95;;
52798;SDS011;38667;42.872;74.622;2023-04-19T08:18:13;32.58;;;22.35;;
52798;SDS011;38667;42.872;74.622;2023-04-19T08:20:39;32.78;;;22.92;;
52798;SDS011;38667;42.872;74.622;2023-04-19T08:23:06;30.15;;;22.00;;
52798;SDS011;38667;42.872;74.622;2023-04-19T08:25:32;35.13;;;22.98;;
52798;SDS011;38667;42.872;74.622;2023-04-19T08:27:59;28.77;;;22.10;;
52798;SDS011;38667;42.872;74.622;2023-04-19T08:30:27;34.75;;;23.42;;
52798;SDS011;38667;42.872;74.622;2023-04-19T08:32:53;32.03;;;22.00;;
52798;SDS011;38667;42.872;74.622;2023-04-19T08:35:19;28.52;;;21.35;;
52798;SDS011;38667;42.872;74.622;2023-04-19T08:37:46;29.70;;;22.35;;
52798;SDS011;38667;42.872;74.622;2023-04-19T08:40:13;30.80;;;22.23;;
52798;SDS011;38667;42.872;74.622;2023-04-19T08:42:40;34.30;;;23.00;;
52798;SDS011;38667;42.872;74.622;2023-04-19T08:45:06;37.72;;;22.50;;
52798;SDS011;38667;42.872;74.622;2023-04-19T08:47:35;29.35;;;22.30;;
52798;SDS011;38667;42.872;74.622;2023-04-19T08:50:03;35.20;;;21.58;;
52798;SDS011;38667;42.872;74.622;2023-04-19T08:52:31;30.48;;;23.15;;
52798;SDS011;38667;42.872;74.622;2023-04-19T08:55:00;32.58;;;24.58;;
52798;SDS011;38667;42.872;74.622;2023-04-19T08:57:29;30.98;;;23.05;;
52798;SDS011;38667;42.872;74.622;2023-04-19T08:59:55;32.80;;;23.27;;
52798;SDS011;38667;42.872;74.622;2023-04-19T09:02:22;31.98;;;22.90;;
52798;SDS011;38667;42.872;74.622;2023-04-19T09:04:50;34.47;;;22.73;;
52798;SDS011;38667;42.872;74.622;2023-04-19T09:07:21;34.10;;;24.08;;
52798;SDS011;38667;42.872;74.622;2023-04-19T09:09:51;31.63;;;24.10;;
52798;SDS011;38667;42.872;74.622;2023-04-19T09:12:29;32.15;;;23.20;;
52798;SDS011;38667;42.872;74.622;2023-04-19T09:14:56;25.55;;;20.92;;
52798;SDS011;38667;42.872;74.622;2023-04-19T09:17:22;31.65;;;21.65;;
52798;SDS011;38667;42.872;74.622;2023-04-19T09:19:50;28.45;;;20.42;;
52798;SDS011;38667;42.872;74.622;2023-04-19T09:22:17;28.95;;;22.48;;
52798;SDS011;38667;42.872;74.622;2023-04-19T09:24:43;28.08;;;22.25;;
52798;SDS011;38667;42.872;74.622;2023-04-19T09:27:10;29.70;;;21.95;;
52798;SDS011;38667;42.872;74.622;2023-04-19T09:29:36;31.17;;;22.98;;
52798;SDS011;38667;42.872;74.622;2023-04-19T09:32:02;32.28;;;22.48;;
52798;SDS011;38667;42.872;74.622;2023-04-19T09:34:29;24.75;;;20.95;;
52798;SDS011;38667;42.872;74.622;2023-04-19T09:36:57;30.88;;;21.10;;
52798;SDS011;38667;42.872;74.622;2023-04-19T09:39:36;23.50;;;19.55;;
52798;SDS011;38667;42.872;74.622;2023-04-19T09:42:03;24.23;;;19.60;;
52798;SDS011;38667;42.872;74.622;2023-04-19T09:44:29;23.33;;;17.85;;
52798;SDS011;38667;42.872;74.622;2023-04-19T09:46:55;20.20;;;16.55;;
52798;SDS011;38667;42.872;74.622;2023-04-19T09:49:22;22.25;;;17.48;;
52798;SDS011;38667;42.872;74.622;2023-04-19T09:51:56;23.50;;;18.50;;
52798;SDS011;38667;42.872;74.622;2023-04-19T09:54:24;24.08;;;18.27;;
52798;SDS011;38667;42.872;74.622;2023-04-19T09:56:51;25.55;;;19.02;;
52798;SDS011;38667;42.872;74.622;2023-04-19T09:59:17;23.42;;;18.98;;
52798;SDS011;38667;42.872;74.622;2023-04-19T10:01:44;23.98;;;18.90;;
52798;SDS011;38667;42.872;74.622;2023-04-19T10:04:11;25.27;;;17.40;;
52798;SDS011;38667;42.872;74.622;2023-04-19T10:06:38;23.42;;;17.40;;
52798;SDS011;38667;42.872;74.622;2023-04-19T10:09:06;32.17;;;16.80;;
52798;SDS011;38667;42.872;74.622;2023-04-19T10:11:33;27.08;;;17.17;;
52798;SDS011;38667;42.872;74.622;2023-04-19T10:14:00;22.58;;;17.35;;
52798;SDS011;38667;42.872;74.622;2023-04-19T10:16:29;28.73;;;17.67;;
52798;SDS011;38667;42.872;74.622;2023-04-19T10:18:56;24.35;;;16.52;;
52798;SDS011;38667;42.872;74.622;2023-04-19T10:21:23;24.92;;;16.42;;
52798;SDS011;38667;42.872;74.622;2023-04-19T10:23:52;20.00;;;15.25;;
52798;SDS011;38667;42.872;74.622;2023-04-19T10:26:20;24.77;;;15.85;;
52798;SDS011;38667;42.872;74.622;2023-04-19T10:28:47;26.33;;;15.05;;
52798;SDS011;38667;42.872;74.622;2023-04-19T10:31:13;21.25;;;13.85;;
52798;SDS011;38667;42.872;74.622;2023-04-19T10:33:40;18.83;;;12.55;;
52798;SDS011;38667;42.872;74.622;2023-04-19T10:36:07;23.23;;;13.18;;
52798;SDS011;38667;42.872;74.622;2023-04-19T10:38:35;14.40;;;10.75;;
52798;SDS011;38667;42.872;74.622;2023-04-19T10:41:02;23.15;;;12.55;;
52798;SDS011;38667;42.872;74.622;2023-04-19T10:43:31;21.85;;;12.68;;
52798;SDS011;38667;42.872;74.622;2023-04-19T10:45:58;19.55;;;12.82;;
52798;SDS011;38667;42.872;74.622;2023-04-19T10:48:33;16.27;;;12.18;;
52798;SDS011;38667;42.872;74.622;2023-04-19T10:51:01;20.92;;;13.18;;
52798;SDS011;38667;42.872;74.622;2023-04-19T10:56:18;23.10;;;12.32;;
52798;SDS011;38667;42.872;74.622;2023-04-19T11:01:39;14.77;;;10.35;;
52798;SDS011;38667;42.872;74.622;2023-04-19T11:04:07;16.58;;;9.77;;
52798;SDS011;38667;42.872;74.622;2023-04-19T11:06:34;16.63;;;10.63;;
52798;SDS011;38667;42.872;74.622;2023-04-19T11:09:01;15.90;;;10.07;;
52798;SDS011;38667;42.872;74.622;2023-04-19T11:11:27;14.85;;;9.90;;
52798;SDS011;38667;42.872;74.622;2023-04-19T11:13:57;22.20;;;10.75;;
52798;SDS011;38667;42.872;74.622;2023-04-19T11:16:27;20.15;;;11.30;;
52798;SDS011;38667;42.872;74.622;2023-04-19T11:18:54;14.57;;;10.48;;
52798;SDS011;38667;42.872;74.622;2023-04-19T11:21:20;18.40;;;11.13;;
52798;SDS011;38667;42.872;74.622;2023-04-19T11:23:46;20.90;;;12.90;;
52798;SDS011;38667;42.872;74.622;2023-04-19T11:26:13;18.65;;;12.02;;
52798;SDS011;38667;42.872;74.622;2023-04-19T11:28:39;22.73;;;12.60;;
52798;SDS011;38667;42.872;74.622;2023-04-19T11:31:05;18.75;;;11.85;;
52798;SDS011;38667;42.872;74.622;2023-04-19T11:33:34;21.95;;;11.52;;
52798;SDS011;38667;42.872;74.622;2023-04-19T11:36:01;22.20;;;11.63;;
52798;SDS011;38667;42.872;74.622;2023-04-19T11:38:27;20.75;;;12.07;;
52798;SDS011;38667;42.872;74.622;2023-04-19T11:40:57;25.63;;;12.73;;
52798;SDS011;38667;42.872;74.622;2023-04-19T11:43:24;19.50;;;11.77;;
52798;SDS011;38667;42.872;74.622;2023-04-19T11:46:01;18.13;;;11.48;;
52798;SDS011;38667;42.872;74.622;2023-04-19T11:48:29;19.35;;;11.43;;
52798;SDS011;38667;42.872;74.622;2023-04-19T11:50:58;19.40;;;12.05;;
52798;SDS011;38667;42.872;74.622;2023-04-19T11:53:25;20.63;;;11.95;;
52798;SDS011;38667;42.872;74.622;2023-04-19T11:55:53;20.00;;;12.35;;
52798;SDS011;38667;42.872;74.622;2023-04-19T11:58:24;20.67;;;11.73;;
52798;SDS011;38667;42.872;74.622;2023-04-19T12:00:52;18.88;;;11.68;;
52798;SDS011;38667;42.872;74.622;2023-04-19T12:03:20;19.58;;;11.55;;
52798;SDS011;38667;42.872;74.622;2023-04-19T12:05:51;22.42;;;11.38;;
52798;SDS011;38667;42.872;74.622;2023-04-19T12:08:28;19.98;;;12.63;;
52798;SDS011;38667;42.872;74.622;2023-04-19T12:10:55;22.27;;;12.80;;
52798;SDS011;38667;42.872;74.622;2023-04-19T12:13:22;20.77;;;13.27;;
52798;SDS011;38667;42.872;74.622;2023-04-19T12:15:50;20.98;;;13.70;;
52798;SDS011;38667;42.872;74.622;2023-04-19T12:18:17;22.38;;;14.38;;
52798;SDS011;38667;42.872;74.622;2023-04-19T12:20:44;26.88;;;15.00;;
52798;SDS011;38667;42.872;74.622;2023-04-19T12:23:11;28.27;;;14.73;;
52798;SDS011;38667;42.872;74.622;2023-04-19T12:25:39;27.27;;;14.70;;
52798;SDS011;38667;42.872;74.622;2023-04-19T12:28:05;25.83;;;14.45;;
52798;SDS011;38667;42.872;74.622;2023-04-19T12:30:32;26.63;;;13.00;;
52798;SDS011;38667;42.872;74.622;2023-04-19T12:32:59;25.75;;;13.05;;
52798;SDS011;38667;42.872;74.622;2023-04-19T12:35:26;23.83;;;13.65;;
52798;SDS011;38667;42.872;74.622;2023-04-19T12:37:53;21.63;;;13.73;;
52798;SDS011;38667;42.872;74.622;2023-04-19T12:40:20;26.15;;;14.43;;
52798;SDS011;38667;42.872;74.622;2023-04-19T12:42:48;20.15;;;13.43;;
52798;SDS011;38667;42.872;74.622;2023-04-19T12:45:16;25.33;;;14.30;;
52798;SDS011;38667;42.872;74.622;2023-04-19T12:47:44;24.65;;;14.82;;
52798;SDS011;38667;42.872;74.622;2023-04-19T12:50:11;22.25;;;13.55;;
52798;SDS011;38667;42.872;74.622;2023-04-19T12:52:37;22.25;;;13.82;;
52798;SDS011;38667;42.872;74.622;2023-04-19T12:55:04;22.38;;;13.13;;
52798;SDS011;38667;42.872;74.622;2023-04-19T12:57:31;23.35;;;12.85;;
52798;SDS011;38667;42.872;74.622;2023-04-19T12:59:59;24.02;;;13.48;;
52798;SDS011;38667;42.872;74.622;2023-04-19T13:02:25;19.38;;;12.50;;
52798;SDS011;38667;42.872;74.622;2023-04-19T13:04:52;22.85;;;12.93;;
52798;SDS011;38667;42.872;74.622;2023-04-19T13:07:18;24.95;;;13.88;;
52798;SDS011;38667;42.872;74.622;2023-04-19T13:09:44;20.42;;;12.55;;
52798;SDS011;38667;42.872;74.622;2023-04-19T13:12:10;27.13;;;13.60;;
52798;SDS011;38667;42.872;74.622;2023-04-19T13:14:37;19.77;;;12.63;;
52798;SDS011;38667;42.872;74.622;2023-04-19T13:17:04;18.30;;;12.88;;
52798;SDS011;38667;42.872;74.622;2023-04-19T13:19:31;20.20;;;12.27;;
52798;SDS011;38667;42.872;74.622;2023-04-19T13:21:57;20.23;;;13.25;;
52798;SDS011;38667;42.872;74.622;2023-04-19T13:24:23;23.88;;;13.00;;
52798;SDS011;38667;42.872;74.622;2023-04-19T13:26:50;20.83;;;13.07;;
52798;SDS011;38667;42.872;74.622;2023-04-19T13:29:16;21.88;;;13.65;;
52798;SDS011;38667;42.872;74.622;2023-04-19T13:31:52;27.92;;;15.00;;
52798;SDS011;38667;42.872;74.622;2023-04-19T13:34:19;26.38;;;13.82;;
52798;SDS011;38667;42.872;74.622;2023-04-19T13:36:46;23.35;;;12.48;;
52798;SDS011;38667;42.872;74.622;2023-04-19T13:39:12;24.45;;;13.43;;
52798;SDS011;38667;42.872;74.622;2023-04-19T13:41:38;24.05;;;11.90;;
52798;SDS011;38667;42.872;74.622;2023-04-19T13:44:05;28.77;;;12.57;;
52798;SDS011;38667;42.872;74.622;2023-04-19T13:46:31;25.95;;;14.68;;
52798;SDS011;38667;42.872;74.622;2023-04-19T13:48:57;21.67;;;12.82;;
52798;SDS011;38667;42.872;74.622;2023-04-19T13:51:25;25.98;;;12.88;;
52798;SDS011;38667;42.872;74.622;2023-04-19T13:53:52;30.67;;;13.80;;
52798;SDS011;38667;42.872;74.622;2023-04-19T13:56:18;25.42;;;13.73;;
52798;SDS011;38667;42.872;74.622;2023-04-19T13:58:44;33.40;;;14.15;;
52798;SDS011;38667;42.872;74.622;2023-04-19T14:01:11;27.67;;;13.50;;
52798;SDS011;38667;42.872;74.622;2023-04-19T14:03:37;27.85;;;14.13;;
52798;SDS011;38667;42.872;74.622;2023-04-19T14:06:03;25.75;;;14.73;;
52798;SDS011;38667;42.872;74.622;2023-04-19T14:08:31;32.05;;;13.90;;
52798;SDS011;38667;42.872;74.622;2023-04-19T14:10:58;29.33;;;15.82;;
52798;SDS011;38667;42.872;74.622;2023-04-19T14:13:24;21.77;;;14.32;;